Bookmark and Share
Track history (hours):
 

Tecumseh

More information available from US FCC via Universal Licensing System and Coast Guard Vessel Documentation Center.

Last reported at 2014-Apr-17 12:33 UTC. Time now 2014-Apr-17 21:47 UTC.
Position N 49°17' W 122°57'.

Length 90 m; draft 4.4 m.

Type: Tow > 200 m length. MMSI: 367133160.

NotesDate/timePositionNaut miles runAvg speedWind from/ knotsBaromVisibWave heightAir tempDewpointWater temp
2014-Apr-17 12:33N 49°17' W 122°57'0 0.0
2014-Apr-17 11:33N 49°17' W 122°57'0 0.0
2014-Apr-17 10:33N 49°17' W 122°57'0 0.1
2014-Apr-17 09:33N 49°18' W 122°57'5 5.1
2014-Apr-17 08:33N 49°18' W 123°05'5 5.0
2014-Apr-17 07:33N 49°19' W 123°12'5 4.7
2014-Apr-17 06:33N 49°16' W 123°18'5 5.4
2014-Apr-17 05:33N 49°11' W 123°20'5 4.8
2014-Apr-17 04:33N 49°06' W 123°20'4 4.3
2014-Apr-17 03:33N 49°02' W 123°17'5 4.8
2014-Apr-17 02:33N 48°59' W 123°12'5 4.7
2014-Apr-17 01:33N 48°56' W 123°06'5 5.2
2014-Apr-17 00:33N 48°53' W 123°01'8 7.6
2014-Apr-16 23:33N 48°45' W 123°03'9 8.9
2014-Apr-16 22:33N 48°40' W 123°14'9 9.2
2014-Apr-16 21:33N 48°31' W 123°11'8 8.1
2014-Apr-16 20:33N 48°23' W 123°11'8 8.1
2014-Apr-16 19:32N 48°16' W 123°19'8 7.7
2014-Apr-16 18:33N 48°09' W 123°23'3 3.1
2014-Apr-16 17:33N 48°08' W 123°27'0 0.0
2014-Apr-16 16:30N 48°08' W 123°27'0 0.0
2014-Apr-16 15:33N 48°08' W 123°27'0 0.0
2014-Apr-16 14:24N 48°08' W 123°27'0 0.0
2014-Apr-16 13:27N 48°08' W 123°27'0 0.0
2014-Apr-16 12:18N 48°08' W 123°27'0 0.0
2014-Apr-16 11:30N 48°08' W 123°27'0 0.0
2014-Apr-16 10:30N 48°08' W 123°27'0 0.0
2014-Apr-16 09:33N 48°08' W 123°27'0 0.0
2014-Apr-16 08:33N 48°08' W 123°27'0 0.0
2014-Apr-16 07:33N 48°08' W 123°27'0 0.0
2014-Apr-16 06:33N 48°08' W 123°27'0 0.0
2014-Apr-16 05:30N 48°08' W 123°27'0 0.0
2014-Apr-16 04:24N 48°08' W 123°27'0 0.0
2014-Apr-16 03:27N 48°08' W 123°27'0 0.0
2014-Apr-16 02:33N 48°08' W 123°27'0 0.0
2014-Apr-16 01:24N 48°08' W 123°27'0 0.0
2014-Apr-16 00:33N 48°08' W 123°27'0 0.0
2014-Apr-15 23:30N 48°08' W 123°27'0 0.0
2014-Apr-15 22:33N 48°08' W 123°27'0 0.0
2014-Apr-15 21:33N 48°08' W 123°27'0 0.0
2014-Apr-15 20:33N 48°08' W 123°27'0 0.0
2014-Apr-15 19:30N 48°08' W 123°27'0 0.0
2014-Apr-15 18:33N 48°08' W 123°27'0 0.0
2014-Apr-15 17:33N 48°08' W 123°27'0 0.0
2014-Apr-15 16:33N 48°08' W 123°27'0 0.0
2014-Apr-15 15:30N 48°08' W 123°27'0 0.0
2014-Apr-15 14:33N 48°08' W 123°27'2 0.9
2014-Apr-15 12:34N 48°09' W 123°25'6 6.0
2014-Apr-15 11:34N 48°12' W 123°33'6 6.3
2014-Apr-15 10:33N 48°12' W 123°42'6 6.4
2014-Apr-15 09:33N 48°12' W 123°52'7 7.3
2014-Apr-15 08:34N 48°14' W 124°02'8 7.5
2014-Apr-15 07:34N 48°18' W 124°13'7 7.4
2014-Apr-15 06:34N 48°21' W 124°23'8 7.6
2014-Apr-15 05:34N 48°24' W 124°33'14 7.0
2014-Apr-15 03:34N 48°27' W 124°54'7 6.3
2014-Apr-15 02:30N 48°22' W 124°60'73 6.6
2014-Apr-14 15:30N 47°09' W 124°56'15 7.7
2014-Apr-14 13:34N 46°55' W 124°49'  
2014-Apr-10 07:34N 38°51' W 124°17'7 5.9
2014-Apr-10 06:24N 38°46' W 124°12'13 6.4
2014-Apr-10 04:22N 38°37' W 123°59'5 6.5
2014-Apr-10 03:33N 38°33' W 123°54'7 6.4
2014-Apr-10 02:31N 38°29' W 123°48'6 6.3
2014-Apr-10 01:33N 38°25' W 123°42'6 6.4
2014-Apr-10 00:33N 38°21' W 123°36'7 6.7
2014-Apr-09 23:33N 38°16' W 123°30'7 6.8
2014-Apr-09 22:34N 38°12' W 123°23'7 7.1
2014-Apr-09 21:34N 38°07' W 123°17'7 7.4
2014-Apr-09 20:33N 38°01' W 123°11'7 7.1
2014-Apr-09 19:33N 37°57' W 123°04'7 7.2
2014-Apr-09 18:33N 37°53' W 122°56'7 7.1
2014-Apr-09 17:33N 37°49' W 122°48'8 7.5
2014-Apr-09 16:33N 37°46' W 122°40'8 7.9
2014-Apr-09 15:33N 37°49' W 122°30'6 6.2
2014-Apr-09 14:33N 37°54' W 122°25'2 1.7
2014-Apr-09 13:33N 37°55' W 122°25'0 0.0
2014-Apr-09 12:31N 37°55' W 122°25'0 0.3
2014-Apr-09 11:28N 37°55' W 122°25'0 0.0
2014-Apr-09 10:25N 37°55' W 122°25'0 0.0
2014-Apr-09 09:28N 37°55' W 122°25'0 0.0
2014-Apr-09 08:28N 37°55' W 122°25'0 0.0
2014-Apr-09 07:16N 37°55' W 122°25'0 0.0
2014-Apr-09 06:28N 37°55' W 122°25'0 0.0
2014-Apr-09 05:31N 37°55' W 122°25'0 0.0
2014-Apr-09 04:31N 37°55' W 122°25'0 0.0
2014-Apr-09 03:31N 37°55' W 122°25'0 0.0
2014-Apr-09 02:31N 37°55' W 122°25'0 0.0
2014-Apr-09 01:25N 37°55' W 122°25'0 0.0
2014-Apr-09 00:25N 37°55' W 122°25'0 0.0
2014-Apr-08 23:28N 37°55' W 122°25'0 0.0
2014-Apr-08 22:31N 37°55' W 122°25'0 0.0
2014-Apr-08 21:31N 37°55' W 122°25'0 0.0
2014-Apr-08 20:25N 37°55' W 122°25'0 0.0
2014-Apr-08 19:28N 37°55' W 122°25'0 0.0
2014-Apr-08 18:31N 37°55' W 122°25'0 0.0
2014-Apr-08 17:31N 37°55' W 122°25'0 0.0
2014-Apr-08 16:31N 37°55' W 122°25'0 0.0
2014-Apr-08 15:31N 37°55' W 122°25'0 0.0
2014-Apr-08 14:32N 37°55' W 122°25'0 0.3
2014-Apr-08 13:32N 37°55' W 122°25'1 1.0
2014-Apr-08 12:33N 37°55' W 122°26'0 0.2
2014-Apr-08 11:24N 37°55' W 122°26'0 0.1
2014-Apr-08 10:30N 37°55' W 122°26'0 0.0
2014-Apr-08 09:30N 37°55' W 122°26'0 0.0
2014-Apr-08 08:33N 37°55' W 122°26'0 0.0
2014-Apr-08 07:30N 37°55' W 122°26'0 0.0
2014-Apr-08 06:33N 37°55' W 122°26'0 0.0
2014-Apr-08 05:30N 37°55' W 122°26'0 0.0
2014-Apr-08 04:33N 37°55' W 122°26'0 0.0
2014-Apr-08 03:33N 37°55' W 122°26'0 0.0
2014-Apr-08 02:27N 37°55' W 122°26'0 0.0
2014-Apr-08 01:30N 37°55' W 122°26'0 0.4
2014-Apr-08 00:33N 37°55' W 122°26'6 5.6
2014-Apr-07 23:33N 38°01' W 122°24'8 8.0
2014-Apr-07 22:31N 38°04' W 122°14'5 0.9
2014-Apr-07 17:26N 38°02' W 122°09'0 0.0
2014-Apr-07 16:32N 38°02' W 122°09'0 0.0
2014-Apr-07 15:32N 38°02' W 122°09'0 0.0
2014-Apr-07 14:26N 38°02' W 122°09'0 0.0
2014-Apr-07 13:32N 38°02' W 122°09'  

Dump ship's entire track history

sailing weather and tide predictions

Tecumseh — WTW9257 — position and weather